sensor_id;sensor_type;location;lat;lon;timestamp;P1;durP1;ratioP1;P2;durP2;ratioP2
17441;SDS011;8838;50.144;8.176;2024-02-23T00:01:56;1.90;;;0.50;;
17441;SDS011;8838;50.144;8.176;2024-02-23T00:04:25;2.37;;;0.70;;
17441;SDS011;8838;50.144;8.176;2024-02-23T00:06:51;1.23;;;0.50;;
17441;SDS011;8838;50.144;8.176;2024-02-23T00:09:18;1.10;;;0.43;;
17441;SDS011;8838;50.144;8.176;2024-02-23T00:11:45;4.43;;;0.80;;
17441;SDS011;8838;50.144;8.176;2024-02-23T00:14:15;1.63;;;0.70;;
17441;SDS011;8838;50.144;8.176;2024-02-23T00:16:43;2.77;;;0.70;;
17441;SDS011;8838;50.144;8.176;2024-02-23T00:19:10;2.90;;;0.60;;
17441;SDS011;8838;50.144;8.176;2024-02-23T00:21:39;3.13;;;0.63;;
17441;SDS011;8838;50.144;8.176;2024-02-23T00:24:07;1.73;;;0.60;;
17441;SDS011;8838;50.144;8.176;2024-02-23T00:26:34;1.53;;;0.37;;
17441;SDS011;8838;50.144;8.176;2024-02-23T00:29:02;1.63;;;0.50;;
17441;SDS011;8838;50.144;8.176;2024-02-23T00:31:29;1.00;;;0.43;;
17441;SDS011;8838;50.144;8.176;2024-02-23T00:33:56;1.70;;;0.40;;
17441;SDS011;8838;50.144;8.176;2024-02-23T00:36:23;1.07;;;0.30;;
17441;SDS011;8838;50.144;8.176;2024-02-23T00:38:51;3.07;;;0.40;;
17441;SDS011;8838;50.144;8.176;2024-02-23T00:41:18;1.07;;;0.40;;
17441;SDS011;8838;50.144;8.176;2024-02-23T00:43:45;0.80;;;0.40;;
17441;SDS011;8838;50.144;8.176;2024-02-23T00:46:12;1.80;;;0.40;;
17441;SDS011;8838;50.144;8.176;2024-02-23T00:48:40;1.70;;;0.40;;
17441;SDS011;8838;50.144;8.176;2024-02-23T00:51:06;0.30;;;0.30;;
17441;SDS011;8838;50.144;8.176;2024-02-23T00:53:34;0.57;;;0.30;;
17441;SDS011;8838;50.144;8.176;2024-02-23T00:56:02;0.70;;;0.30;;
17441;SDS011;8838;50.144;8.176;2024-02-23T00:58:29;1.20;;;0.40;;
17441;SDS011;8838;50.144;8.176;2024-02-23T01:00:56;2.70;;;0.33;;
17441;SDS011;8838;50.144;8.176;2024-02-23T01:03:23;1.20;;;0.67;;
17441;SDS011;8838;50.144;8.176;2024-02-23T01:05:50;1.17;;;0.30;;
17441;SDS011;8838;50.144;8.176;2024-02-23T01:08:17;0.93;;;0.50;;
17441;SDS011;8838;50.144;8.176;2024-02-23T01:10:44;1.23;;;0.40;;
17441;SDS011;8838;50.144;8.176;2024-02-23T01:13:12;1.93;;;0.50;;
17441;SDS011;8838;50.144;8.176;2024-02-23T01:15:41;2.47;;;0.80;;
17441;SDS011;8838;50.144;8.176;2024-02-23T01:18:08;2.03;;;0.60;;
17441;SDS011;8838;50.144;8.176;2024-02-23T01:20:35;0.77;;;0.40;;
17441;SDS011;8838;50.144;8.176;2024-02-23T01:23:02;2.60;;;0.60;;
17441;SDS011;8838;50.144;8.176;2024-02-23T01:25:28;1.90;;;0.40;;
17441;SDS011;8838;50.144;8.176;2024-02-23T01:27:55;1.90;;;0.30;;
17441;SDS011;8838;50.144;8.176;2024-02-23T01:30:23;2.07;;;0.40;;
17441;SDS011;8838;50.144;8.176;2024-02-23T01:32:50;2.03;;;0.60;;
17441;SDS011;8838;50.144;8.176;2024-02-23T01:35:17;2.40;;;0.50;;
17441;SDS011;8838;50.144;8.176;2024-02-23T01:37:44;1.97;;;0.60;;
17441;SDS011;8838;50.144;8.176;2024-02-23T01:40:10;0.50;;;0.43;;
17441;SDS011;8838;50.144;8.176;2024-02-23T01:42:37;2.03;;;0.83;;
17441;SDS011;8838;50.144;8.176;2024-02-23T01:45:04;3.83;;;0.60;;
17441;SDS011;8838;50.144;8.176;2024-02-23T01:47:33;5.17;;;0.50;;
17441;SDS011;8838;50.144;8.176;2024-02-23T01:50:00;1.27;;;0.50;;
17441;SDS011;8838;50.144;8.176;2024-02-23T01:52:28;3.40;;;0.50;;
17441;SDS011;8838;50.144;8.176;2024-02-23T01:54:55;4.17;;;0.77;;
17441;SDS011;8838;50.144;8.176;2024-02-23T01:57:22;3.17;;;0.63;;
17441;SDS011;8838;50.144;8.176;2024-02-23T01:59:50;3.93;;;0.70;;
17441;SDS011;8838;50.144;8.176;2024-02-23T02:02:17;3.23;;;0.90;;
17441;SDS011;8838;50.144;8.176;2024-02-23T02:04:45;2.47;;;0.70;;
17441;SDS011;8838;50.144;8.176;2024-02-23T02:07:12;2.83;;;0.50;;
17441;SDS011;8838;50.144;8.176;2024-02-23T02:09:39;1.97;;;0.50;;
17441;SDS011;8838;50.144;8.176;2024-02-23T02:12:06;1.40;;;0.50;;
17441;SDS011;8838;50.144;8.176;2024-02-23T02:14:33;0.43;;;0.40;;
17441;SDS011;8838;50.144;8.176;2024-02-23T02:17:00;3.37;;;0.60;;
17441;SDS011;8838;50.144;8.176;2024-02-23T02:19:26;1.73;;;0.57;;
17441;SDS011;8838;50.144;8.176;2024-02-23T02:21:54;3.03;;;0.40;;
17441;SDS011;8838;50.144;8.176;2024-02-23T02:24:22;3.03;;;0.80;;
17441;SDS011;8838;50.144;8.176;2024-02-23T02:26:49;1.63;;;0.50;;
17441;SDS011;8838;50.144;8.176;2024-02-23T02:29:15;5.40;;;0.70;;
17441;SDS011;8838;50.144;8.176;2024-02-23T02:31:42;2.93;;;0.60;;
17441;SDS011;8838;50.144;8.176;2024-02-23T02:34:09;2.60;;;0.60;;
17441;SDS011;8838;50.144;8.176;2024-02-23T02:36:38;2.43;;;0.60;;
17441;SDS011;8838;50.144;8.176;2024-02-23T02:39:06;1.63;;;0.60;;
17441;SDS011;8838;50.144;8.176;2024-02-23T02:41:33;1.30;;;0.50;;
17441;SDS011;8838;50.144;8.176;2024-02-23T02:44:00;4.83;;;0.80;;
17441;SDS011;8838;50.144;8.176;2024-02-23T02:46:26;2.87;;;0.83;;
17441;SDS011;8838;50.144;8.176;2024-02-23T02:48:53;3.30;;;0.80;;
17441;SDS011;8838;50.144;8.176;2024-02-23T02:51:20;2.30;;;0.63;;
17441;SDS011;8838;50.144;8.176;2024-02-23T02:53:47;3.67;;;0.70;;
17441;SDS011;8838;50.144;8.176;2024-02-23T02:56:15;2.47;;;0.70;;
17441;SDS011;8838;50.144;8.176;2024-02-23T02:58:41;2.97;;;0.70;;
17441;SDS011;8838;50.144;8.176;2024-02-23T03:01:08;5.30;;;0.70;;
17441;SDS011;8838;50.144;8.176;2024-02-23T03:03:35;4.17;;;0.80;;
17441;SDS011;8838;50.144;8.176;2024-02-23T03:06:02;3.10;;;0.80;;
17441;SDS011;8838;50.144;8.176;2024-02-23T03:08:30;3.30;;;0.90;;
17441;SDS011;8838;50.144;8.176;2024-02-23T03:10:57;3.63;;;0.63;;
17441;SDS011;8838;50.144;8.176;2024-02-23T03:13:25;7.03;;;0.90;;
17441;SDS011;8838;50.144;8.176;2024-02-23T03:15:52;3.07;;;0.93;;
17441;SDS011;8838;50.144;8.176;2024-02-23T03:18:19;4.63;;;0.87;;
17441;SDS011;8838;50.144;8.176;2024-02-23T03:20:45;4.57;;;0.70;;
17441;SDS011;8838;50.144;8.176;2024-02-23T03:23:12;2.80;;;0.87;;
17441;SDS011;8838;50.144;8.176;2024-02-23T03:25:39;6.00;;;0.80;;
17441;SDS011;8838;50.144;8.176;2024-02-23T03:28:06;3.50;;;1.20;;
17441;SDS011;8838;50.144;8.176;2024-02-23T03:30:34;5.73;;;0.80;;
17441;SDS011;8838;50.144;8.176;2024-02-23T03:33:01;5.30;;;1.00;;
17441;SDS011;8838;50.144;8.176;2024-02-23T03:35:28;4.40;;;0.97;;
17441;SDS011;8838;50.144;8.176;2024-02-23T03:37:54;2.90;;;0.80;;
17441;SDS011;8838;50.144;8.176;2024-02-23T03:40:21;4.17;;;0.93;;
17441;SDS011;8838;50.144;8.176;2024-02-23T03:42:48;8.97;;;1.10;;
17441;SDS011;8838;50.144;8.176;2024-02-23T03:45:15;5.37;;;0.90;;
17441;SDS011;8838;50.144;8.176;2024-02-23T03:47:43;3.87;;;0.77;;
17441;SDS011;8838;50.144;8.176;2024-02-23T03:50:10;3.30;;;0.80;;
17441;SDS011;8838;50.144;8.176;2024-02-23T03:52:36;3.00;;;0.90;;
17441;SDS011;8838;50.144;8.176;2024-02-23T03:55:03;3.97;;;0.90;;
17441;SDS011;8838;50.144;8.176;2024-02-23T03:57:31;3.53;;;0.87;;
17441;SDS011;8838;50.144;8.176;2024-02-23T03:59:58;4.13;;;0.60;;
17441;SDS011;8838;50.144;8.176;2024-02-23T04:02:25;3.80;;;0.70;;
17441;SDS011;8838;50.144;8.176;2024-02-23T04:04:53;4.00;;;0.70;;
17441;SDS011;8838;50.144;8.176;2024-02-23T04:07:20;4.20;;;0.70;;
17441;SDS011;8838;50.144;8.176;2024-02-23T04:09:46;2.80;;;1.00;;
17441;SDS011;8838;50.144;8.176;2024-02-23T04:12:17;4.47;;;0.83;;
17441;SDS011;8838;50.144;8.176;2024-02-23T04:14:44;5.33;;;1.33;;
17441;SDS011;8838;50.144;8.176;2024-02-23T04:17:11;9.23;;;1.77;;
17441;SDS011;8838;50.144;8.176;2024-02-23T04:19:37;5.27;;;0.70;;
17441;SDS011;8838;50.144;8.176;2024-02-23T04:22:06;5.50;;;1.00;;
17441;SDS011;8838;50.144;8.176;2024-02-23T04:24:35;3.50;;;0.97;;
17441;SDS011;8838;50.144;8.176;2024-02-23T04:27:04;4.57;;;0.80;;
17441;SDS011;8838;50.144;8.176;2024-02-23T04:29:31;6.00;;;1.03;;
17441;SDS011;8838;50.144;8.176;2024-02-23T04:31:58;6.37;;;1.20;;
17441;SDS011;8838;50.144;8.176;2024-02-23T04:34:25;3.63;;;1.00;;
17441;SDS011;8838;50.144;8.176;2024-02-23T04:36:52;4.07;;;1.10;;
17441;SDS011;8838;50.144;8.176;2024-02-23T04:39:20;3.57;;;0.73;;
17441;SDS011;8838;50.144;8.176;2024-02-23T04:41:47;6.40;;;0.83;;
17441;SDS011;8838;50.144;8.176;2024-02-23T04:44:14;8.80;;;1.23;;
17441;SDS011;8838;50.144;8.176;2024-02-23T04:46:41;5.27;;;1.57;;
17441;SDS011;8838;50.144;8.176;2024-02-23T04:49:08;5.03;;;1.10;;
17441;SDS011;8838;50.144;8.176;2024-02-23T04:51:36;3.60;;;0.70;;
17441;SDS011;8838;50.144;8.176;2024-02-23T04:54:03;3.83;;;0.60;;
17441;SDS011;8838;50.144;8.176;2024-02-23T04:56:31;5.70;;;0.80;;
17441;SDS011;8838;50.144;8.176;2024-02-23T04:58:58;5.47;;;1.00;;
17441;SDS011;8838;50.144;8.176;2024-02-23T05:01:25;6.90;;;1.00;;
17441;SDS011;8838;50.144;8.176;2024-02-23T05:03:52;2.17;;;0.80;;
17441;SDS011;8838;50.144;8.176;2024-02-23T05:06:18;2.30;;;0.90;;
17441;SDS011;8838;50.144;8.176;2024-02-23T05:08:45;4.80;;;0.70;;
17441;SDS011;8838;50.144;8.176;2024-02-23T05:11:14;2.87;;;0.80;;
17441;SDS011;8838;50.144;8.176;2024-02-23T05:13:42;6.70;;;0.80;;
17441;SDS011;8838;50.144;8.176;2024-02-23T05:16:09;4.70;;;0.90;;
17441;SDS011;8838;50.144;8.176;2024-02-23T05:18:35;4.00;;;0.90;;
17441;SDS011;8838;50.144;8.176;2024-02-23T05:21:02;4.33;;;1.30;;
17441;SDS011;8838;50.144;8.176;2024-02-23T05:23:30;5.53;;;0.97;;
17441;SDS011;8838;50.144;8.176;2024-02-23T05:25:56;3.73;;;0.87;;
17441;SDS011;8838;50.144;8.176;2024-02-23T05:28:24;4.57;;;0.80;;
17441;SDS011;8838;50.144;8.176;2024-02-23T05:30:52;8.20;;;1.10;;
17441;SDS011;8838;50.144;8.176;2024-02-23T05:33:20;3.60;;;0.70;;
17441;SDS011;8838;50.144;8.176;2024-02-23T05:35:46;6.17;;;0.90;;
17441;SDS011;8838;50.144;8.176;2024-02-23T05:38:13;4.47;;;0.90;;
17441;SDS011;8838;50.144;8.176;2024-02-23T05:40:40;6.20;;;0.90;;
17441;SDS011;8838;50.144;8.176;2024-02-23T05:43:07;4.37;;;1.27;;
17441;SDS011;8838;50.144;8.176;2024-02-23T05:45:34;3.63;;;0.83;;
17441;SDS011;8838;50.144;8.176;2024-02-23T05:48:02;2.83;;;0.60;;
17441;SDS011;8838;50.144;8.176;2024-02-23T05:50:29;4.47;;;0.93;;
17441;SDS011;8838;50.144;8.176;2024-02-23T05:52:57;3.57;;;0.90;;
17441;SDS011;8838;50.144;8.176;2024-02-23T05:55:23;2.70;;;0.70;;
17441;SDS011;8838;50.144;8.176;2024-02-23T05:57:50;2.30;;;0.77;;
17441;SDS011;8838;50.144;8.176;2024-02-23T06:00:17;6.57;;;0.90;;
17441;SDS011;8838;50.144;8.176;2024-02-23T06:02:46;4.10;;;0.70;;
17441;SDS011;8838;50.144;8.176;2024-02-23T06:05:14;2.33;;;0.70;;
17441;SDS011;8838;50.144;8.176;2024-02-23T06:07:41;4.13;;;1.00;;
17441;SDS011;8838;50.144;8.176;2024-02-23T06:10:08;7.93;;;1.13;;
17441;SDS011;8838;50.144;8.176;2024-02-23T06:12:35;6.10;;;1.23;;
17441;SDS011;8838;50.144;8.176;2024-02-23T06:15:03;7.67;;;1.07;;
17441;SDS011;8838;50.144;8.176;2024-02-23T06:17:31;4.97;;;1.00;;
17441;SDS011;8838;50.144;8.176;2024-02-23T06:19:58;4.57;;;1.17;;
17441;SDS011;8838;50.144;8.176;2024-02-23T06:22:26;4.30;;;1.00;;
17441;SDS011;8838;50.144;8.176;2024-02-23T06:24:53;3.73;;;1.00;;
17441;SDS011;8838;50.144;8.176;2024-02-23T06:27:19;4.73;;;1.03;;
17441;SDS011;8838;50.144;8.176;2024-02-23T06:29:47;4.00;;;0.80;;
17441;SDS011;8838;50.144;8.176;2024-02-23T06:32:14;5.47;;;0.87;;
17441;SDS011;8838;50.144;8.176;2024-02-23T06:34:41;4.33;;;1.00;;
17441;SDS011;8838;50.144;8.176;2024-02-23T06:37:08;6.10;;;1.27;;
17441;SDS011;8838;50.144;8.176;2024-02-23T06:39:36;8.37;;;1.20;;
17441;SDS011;8838;50.144;8.176;2024-02-23T06:42:03;4.47;;;0.80;;
17441;SDS011;8838;50.144;8.176;2024-02-23T06:44:30;8.13;;;1.30;;
17441;SDS011;8838;50.144;8.176;2024-02-23T06:46:57;7.23;;;1.20;;
17441;SDS011;8838;50.144;8.176;2024-02-23T06:49:23;8.10;;;1.23;;
17441;SDS011;8838;50.144;8.176;2024-02-23T06:51:50;8.23;;;1.30;;
17441;SDS011;8838;50.144;8.176;2024-02-23T06:54:17;6.43;;;1.17;;
17441;SDS011;8838;50.144;8.176;2024-02-23T06:56:45;1.87;;;0.80;;
17441;SDS011;8838;50.144;8.176;2024-02-23T06:59:12;5.13;;;1.20;;
17441;SDS011;8838;50.144;8.176;2024-02-23T07:01:47;7.93;;;1.17;;
17441;SDS011;8838;50.144;8.176;2024-02-23T07:04:15;7.23;;;1.37;;
17441;SDS011;8838;50.144;8.176;2024-02-23T07:06:42;4.57;;;1.17;;
17441;SDS011;8838;50.144;8.176;2024-02-23T07:09:09;5.20;;;1.20;;
17441;SDS011;8838;50.144;8.176;2024-02-23T07:11:36;7.57;;;1.50;;
17441;SDS011;8838;50.144;8.176;2024-02-23T07:14:04;4.43;;;1.43;;
17441;SDS011;8838;50.144;8.176;2024-02-23T07:16:32;7.67;;;1.60;;
17441;SDS011;8838;50.144;8.176;2024-02-23T07:18:59;4.90;;;1.80;;
17441;SDS011;8838;50.144;8.176;2024-02-23T07:21:25;8.43;;;1.70;;
17441;SDS011;8838;50.144;8.176;2024-02-23T07:23:52;5.90;;;1.43;;
17441;SDS011;8838;50.144;8.176;2024-02-23T07:26:19;8.23;;;1.70;;
17441;SDS011;8838;50.144;8.176;2024-02-23T07:28:47;5.03;;;1.60;;
17441;SDS011;8838;50.144;8.176;2024-02-23T07:31:15;6.70;;;1.40;;
17441;SDS011;8838;50.144;8.176;2024-02-23T07:33:42;6.17;;;1.37;;
17441;SDS011;8838;50.144;8.176;2024-02-23T07:36:13;6.70;;;1.37;;
17441;SDS011;8838;50.144;8.176;2024-02-23T07:38:40;6.17;;;1.43;;
17441;SDS011;8838;50.144;8.176;2024-02-23T07:41:08;6.93;;;1.33;;
17441;SDS011;8838;50.144;8.176;2024-02-23T07:43:35;6.10;;;1.17;;
17441;SDS011;8838;50.144;8.176;2024-02-23T07:46:02;7.10;;;1.30;;
17441;SDS011;8838;50.144;8.176;2024-02-23T07:48:34;7.80;;;1.40;;
17441;SDS011;8838;50.144;8.176;2024-02-23T07:51:01;8.27;;;1.63;;
17441;SDS011;8838;50.144;8.176;2024-02-23T07:53:29;6.53;;;1.67;;
17441;SDS011;8838;50.144;8.176;2024-02-23T07:55:56;7.13;;;1.50;;
17441;SDS011;8838;50.144;8.176;2024-02-23T07:58:24;10.73;;;2.07;;
17441;SDS011;8838;50.144;8.176;2024-02-23T08:00:52;5.27;;;1.50;;
17441;SDS011;8838;50.144;8.176;2024-02-23T08:03:19;5.70;;;1.10;;
17441;SDS011;8838;50.144;8.176;2024-02-23T08:05:47;10.03;;;1.27;;
17441;SDS011;8838;50.144;8.176;2024-02-23T08:08:14;8.57;;;1.30;;
17441;SDS011;8838;50.144;8.176;2024-02-23T08:10:41;6.07;;;1.40;;
17441;SDS011;8838;50.144;8.176;2024-02-23T08:13:08;7.77;;;1.13;;
17441;SDS011;8838;50.144;8.176;2024-02-23T08:15:35;7.93;;;1.60;;
17441;SDS011;8838;50.144;8.176;2024-02-23T08:18:02;5.47;;;1.10;;
17441;SDS011;8838;50.144;8.176;2024-02-23T08:20:29;7.73;;;1.17;;
17441;SDS011;8838;50.144;8.176;2024-02-23T08:22:57;6.97;;;1.57;;
17441;SDS011;8838;50.144;8.176;2024-02-23T08:25:24;9.10;;;1.40;;
17441;SDS011;8838;50.144;8.176;2024-02-23T08:27:53;12.73;;;1.63;;
17441;SDS011;8838;50.144;8.176;2024-02-23T08:30:20;10.07;;;1.50;;
17441;SDS011;8838;50.144;8.176;2024-02-23T08:32:47;10.10;;;1.97;;
17441;SDS011;8838;50.144;8.176;2024-02-23T08:35:14;4.50;;;1.10;;
17441;SDS011;8838;50.144;8.176;2024-02-23T08:37:41;9.60;;;1.20;;
17441;SDS011;8838;50.144;8.176;2024-02-23T08:40:10;5.83;;;1.20;;
17441;SDS011;8838;50.144;8.176;2024-02-23T08:42:37;13.87;;;1.33;;
17441;SDS011;8838;50.144;8.176;2024-02-23T08:45:04;7.43;;;1.47;;
17441;SDS011;8838;50.144;8.176;2024-02-23T08:47:32;9.50;;;1.50;;
17441;SDS011;8838;50.144;8.176;2024-02-23T08:50:00;8.07;;;1.30;;
17441;SDS011;8838;50.144;8.176;2024-02-23T08:52:27;8.43;;;1.70;;
17441;SDS011;8838;50.144;8.176;2024-02-23T08:54:55;8.80;;;1.20;;
17441;SDS011;8838;50.144;8.176;2024-02-23T08:57:23;6.20;;;1.17;;
17441;SDS011;8838;50.144;8.176;2024-02-23T08:59:51;9.87;;;1.33;;
17441;SDS011;8838;50.144;8.176;2024-02-23T09:02:18;7.43;;;1.30;;
17441;SDS011;8838;50.144;8.176;2024-02-23T09:04:45;6.57;;;1.13;;
17441;SDS011;8838;50.144;8.176;2024-02-23T09:07:12;6.43;;;1.30;;
17441;SDS011;8838;50.144;8.176;2024-02-23T09:09:39;4.80;;;1.03;;
17441;SDS011;8838;50.144;8.176;2024-02-23T09:12:06;7.47;;;1.33;;
17441;SDS011;8838;50.144;8.176;2024-02-23T09:14:36;6.23;;;1.37;;
17441;SDS011;8838;50.144;8.176;2024-02-23T09:17:04;6.53;;;1.20;;
17441;SDS011;8838;50.144;8.176;2024-02-23T09:19:33;8.67;;;1.30;;
17441;SDS011;8838;50.144;8.176;2024-02-23T09:22:00;6.53;;;1.10;;
17441;SDS011;8838;50.144;8.176;2024-02-23T09:24:27;8.27;;;1.53;;
17441;SDS011;8838;50.144;8.176;2024-02-23T09:26:54;7.30;;;1.13;;
17441;SDS011;8838;50.144;8.176;2024-02-23T09:29:21;10.20;;;1.60;;
17441;SDS011;8838;50.144;8.176;2024-02-23T09:31:49;8.93;;;1.20;;
17441;SDS011;8838;50.144;8.176;2024-02-23T09:34:17;8.03;;;1.40;;
17441;SDS011;8838;50.144;8.176;2024-02-23T09:36:44;10.73;;;1.47;;
17441;SDS011;8838;50.144;8.176;2024-02-23T09:39:11;5.97;;;1.33;;
17441;SDS011;8838;50.144;8.176;2024-02-23T09:41:38;9.20;;;1.50;;
17441;SDS011;8838;50.144;8.176;2024-02-23T09:44:05;7.07;;;1.40;;
17441;SDS011;8838;50.144;8.176;2024-02-23T09:46:34;9.47;;;1.63;;
17441;SDS011;8838;50.144;8.176;2024-02-23T09:49:04;10.90;;;1.60;;
17441;SDS011;8838;50.144;8.176;2024-02-23T09:51:33;7.47;;;1.20;;
17441;SDS011;8838;50.144;8.176;2024-02-23T09:54:01;9.40;;;1.30;;
17441;SDS011;8838;50.144;8.176;2024-02-23T09:56:28;7.57;;;1.40;;
17441;SDS011;8838;50.144;8.176;2024-02-23T09:58:56;8.63;;;1.50;;
17441;SDS011;8838;50.144;8.176;2024-02-23T10:01:27;7.60;;;1.53;;
17441;SDS011;8838;50.144;8.176;2024-02-23T10:03:56;9.50;;;1.30;;
17441;SDS011;8838;50.144;8.176;2024-02-23T10:06:25;8.63;;;1.80;;
17441;SDS011;8838;50.144;8.176;2024-02-23T10:08:52;7.77;;;1.40;;
17441;SDS011;8838;50.144;8.176;2024-02-23T10:11:20;12.23;;;2.00;;
17441;SDS011;8838;50.144;8.176;2024-02-23T10:13:47;10.97;;;1.30;;
17441;SDS011;8838;50.144;8.176;2024-02-23T10:16:15;9.63;;;1.47;;
17441;SDS011;8838;50.144;8.176;2024-02-23T10:18:42;9.17;;;1.43;;
17441;SDS011;8838;50.144;8.176;2024-02-23T10:21:09;5.97;;;1.10;;
17441;SDS011;8838;50.144;8.176;2024-02-23T10:23:38;7.63;;;2.03;;
17441;SDS011;8838;50.144;8.176;2024-02-23T10:26:05;7.43;;;1.23;;
17441;SDS011;8838;50.144;8.176;2024-02-23T10:28:33;6.60;;;1.20;;
17441;SDS011;8838;50.144;8.176;2024-02-23T10:31:00;7.23;;;1.17;;
17441;SDS011;8838;50.144;8.176;2024-02-23T10:33:28;6.70;;;1.30;;
17441;SDS011;8838;50.144;8.176;2024-02-23T10:35:56;5.13;;;1.20;;
17441;SDS011;8838;50.144;8.176;2024-02-23T10:38:23;6.03;;;1.20;;
17441;SDS011;8838;50.144;8.176;2024-02-23T10:40:54;8.10;;;1.27;;
17441;SDS011;8838;50.144;8.176;2024-02-23T10:43:21;4.77;;;1.10;;
17441;SDS011;8838;50.144;8.176;2024-02-23T10:46:07;7.60;;;1.30;;
17441;SDS011;8838;50.144;8.176;2024-02-23T10:48:38;8.77;;;0.83;;
17441;SDS011;8838;50.144;8.176;2024-02-23T10:51:05;5.53;;;1.10;;
17441;SDS011;8838;50.144;8.176;2024-02-23T10:53:33;5.47;;;1.00;;
17441;SDS011;8838;50.144;8.176;2024-02-23T10:56:02;6.70;;;1.40;;
17441;SDS011;8838;50.144;8.176;2024-02-23T10:58:30;4.80;;;1.10;;
17441;SDS011;8838;50.144;8.176;2024-02-23T11:00:58;5.97;;;1.00;;
17441;SDS011;8838;50.144;8.176;2024-02-23T11:03:26;7.73;;;1.30;;
17441;SDS011;8838;50.144;8.176;2024-02-23T11:05:54;7.20;;;1.07;;
17441;SDS011;8838;50.144;8.176;2024-02-23T11:08:20;7.10;;;1.00;;
17441;SDS011;8838;50.144;8.176;2024-02-23T11:10:50;6.87;;;1.30;;
17441;SDS011;8838;50.144;8.176;2024-02-23T11:13:19;4.10;;;0.77;;
17441;SDS011;8838;50.144;8.176;2024-02-23T11:16:01;3.80;;;0.97;;
17441;SDS011;8838;50.144;8.176;2024-02-23T11:18:28;6.43;;;1.20;;
17441;SDS011;8838;50.144;8.176;2024-02-23T11:20:58;4.53;;;1.00;;
17441;SDS011;8838;50.144;8.176;2024-02-23T11:23:26;7.17;;;1.23;;
17441;SDS011;8838;50.144;8.176;2024-02-23T11:26:04;5.53;;;1.10;;
17441;SDS011;8838;50.144;8.176;2024-02-23T11:28:34;4.70;;;0.90;;
17441;SDS011;8838;50.144;8.176;2024-02-23T11:31:11;5.83;;;1.03;;
17441;SDS011;8838;50.144;8.176;2024-02-23T11:33:38;6.80;;;1.10;;
17441;SDS011;8838;50.144;8.176;2024-02-23T11:36:06;2.70;;;0.83;;
17441;SDS011;8838;50.144;8.176;2024-02-23T11:38:33;2.80;;;0.90;;
17441;SDS011;8838;50.144;8.176;2024-02-23T11:41:00;5.73;;;1.00;;
17441;SDS011;8838;50.144;8.176;2024-02-23T11:43:28;3.53;;;0.90;;
17441;SDS011;8838;50.144;8.176;2024-02-23T11:45:57;6.57;;;1.00;;
17441;SDS011;8838;50.144;8.176;2024-02-23T11:48:24;4.77;;;1.13;;
17441;SDS011;8838;50.144;8.176;2024-02-23T11:50:50;4.57;;;0.97;;
17441;SDS011;8838;50.144;8.176;2024-02-23T11:53:17;6.20;;;1.10;;
17441;SDS011;8838;50.144;8.176;2024-02-23T11:55:47;6.17;;;1.20;;
17441;SDS011;8838;50.144;8.176;2024-02-23T11:58:15;3.77;;;0.80;;
17441;SDS011;8838;50.144;8.176;2024-02-23T12:00:43;5.97;;;1.10;;
17441;SDS011;8838;50.144;8.176;2024-02-23T12:03:13;3.63;;;1.20;;
17441;SDS011;8838;50.144;8.176;2024-02-23T12:05:39;6.00;;;1.00;;
17441;SDS011;8838;50.144;8.176;2024-02-23T12:08:06;3.50;;;1.10;;
17441;SDS011;8838;50.144;8.176;2024-02-23T12:10:33;5.50;;;1.17;;
17441;SDS011;8838;50.144;8.176;2024-02-23T12:13:01;7.13;;;1.10;;
17441;SDS011;8838;50.144;8.176;2024-02-23T12:15:28;3.37;;;0.80;;
17441;SDS011;8838;50.144;8.176;2024-02-23T12:17:57;2.97;;;1.00;;
17441;SDS011;8838;50.144;8.176;2024-02-23T12:20:26;2.92;;;0.80;;
17441;SDS011;8838;50.144;8.176;2024-02-23T12:22:54;4.40;;;0.73;;
17441;SDS011;8838;50.144;8.176;2024-02-23T12:25:21;8.93;;;1.10;;
17441;SDS011;8838;50.144;8.176;2024-02-23T12:27:53;2.60;;;0.80;;
17441;SDS011;8838;50.144;8.176;2024-02-23T12:30:20;6.30;;;0.93;;
17441;SDS011;8838;50.144;8.176;2024-02-23T12:32:47;4.23;;;0.80;;
17441;SDS011;8838;50.144;8.176;2024-02-23T12:35:14;3.20;;;0.70;;
17441;SDS011;8838;50.144;8.176;2024-02-23T12:37:43;2.37;;;0.70;;
17441;SDS011;8838;50.144;8.176;2024-02-23T12:40:10;4.00;;;0.70;;
17441;SDS011;8838;50.144;8.176;2024-02-23T12:42:37;3.83;;;1.10;;
17441;SDS011;8838;50.144;8.176;2024-02-23T12:45:04;5.57;;;0.80;;
17441;SDS011;8838;50.144;8.176;2024-02-23T12:47:32;3.90;;;1.07;;
17441;SDS011;8838;50.144;8.176;2024-02-23T12:49:59;4.73;;;0.83;;
17441;SDS011;8838;50.144;8.176;2024-02-23T12:52:25;4.67;;;0.90;;
17441;SDS011;8838;50.144;8.176;2024-02-23T12:54:54;6.93;;;1.30;;
17441;SDS011;8838;50.144;8.176;2024-02-23T12:57:20;7.93;;;1.30;;
17441;SDS011;8838;50.144;8.176;2024-02-23T12:59:47;4.30;;;1.20;;
17441;SDS011;8838;50.144;8.176;2024-02-23T13:02:14;5.17;;;0.90;;
17441;SDS011;8838;50.144;8.176;2024-02-23T13:04:41;2.40;;;0.80;;
17441;SDS011;8838;50.144;8.176;2024-02-23T13:07:13;4.00;;;0.90;;
17441;SDS011;8838;50.144;8.176;2024-02-23T13:09:40;3.83;;;0.90;;
17441;SDS011;8838;50.144;8.176;2024-02-23T13:12:08;4.13;;;0.90;;
17441;SDS011;8838;50.144;8.176;2024-02-23T13:14:35;3.67;;;0.90;;
17441;SDS011;8838;50.144;8.176;2024-02-23T13:17:02;5.87;;;1.07;;
17441;SDS011;8838;50.144;8.176;2024-02-23T13:19:29;4.30;;;0.90;;
17441;SDS011;8838;50.144;8.176;2024-02-23T13:21:56;5.73;;;1.10;;
17441;SDS011;8838;50.144;8.176;2024-02-23T13:24:25;7.00;;;1.20;;
17441;SDS011;8838;50.144;8.176;2024-02-23T13:26:52;4.10;;;1.10;;
17441;SDS011;8838;50.144;8.176;2024-02-23T13:29:20;4.73;;;1.10;;
17441;SDS011;8838;50.144;8.176;2024-02-23T13:31:47;5.13;;;1.10;;
17441;SDS011;8838;50.144;8.176;2024-02-23T13:34:13;3.37;;;0.87;;
17441;SDS011;8838;50.144;8.176;2024-02-23T13:36:41;4.97;;;1.17;;
17441;SDS011;8838;50.144;8.176;2024-02-23T13:39:08;6.67;;;1.53;;
17441;SDS011;8838;50.144;8.176;2024-02-23T13:41:35;7.93;;;1.50;;
17441;SDS011;8838;50.144;8.176;2024-02-23T13:44:03;5.03;;;1.10;;
17441;SDS011;8838;50.144;8.176;2024-02-23T13:46:31;7.00;;;1.10;;
17441;SDS011;8838;50.144;8.176;2024-02-23T13:49:02;7.40;;;3.00;;
17441;SDS011;8838;50.144;8.176;2024-02-23T13:51:30;6.00;;;1.20;;
17441;SDS011;8838;50.144;8.176;2024-02-23T13:53:57;5.07;;;1.20;;
17441;SDS011;8838;50.144;8.176;2024-02-23T13:56:24;2.77;;;0.90;;
17441;SDS011;8838;50.144;8.176;2024-02-23T13:58:51;2.77;;;0.67;;
17441;SDS011;8838;50.144;8.176;2024-02-23T14:01:18;3.23;;;0.90;;
17441;SDS011;8838;50.144;8.176;2024-02-23T14:03:46;2.73;;;0.90;;
17441;SDS011;8838;50.144;8.176;2024-02-23T14:06:13;5.07;;;1.20;;
17441;SDS011;8838;50.144;8.176;2024-02-23T14:08:39;6.20;;;0.90;;
17441;SDS011;8838;50.144;8.176;2024-02-23T14:11:07;3.60;;;0.97;;
17441;SDS011;8838;50.144;8.176;2024-02-23T14:13:34;4.20;;;0.80;;
17441;SDS011;8838;50.144;8.176;2024-02-23T14:16:01;5.20;;;1.30;;
17441;SDS011;8838;50.144;8.176;2024-02-23T14:18:30;7.97;;;0.97;;
17441;SDS011;8838;50.144;8.176;2024-02-23T14:21:03;8.23;;;1.10;;
17441;SDS011;8838;50.144;8.176;2024-02-23T14:23:30;4.83;;;1.00;;
17441;SDS011;8838;50.144;8.176;2024-02-23T14:25:57;5.57;;;0.90;;
17441;SDS011;8838;50.144;8.176;2024-02-23T14:28:24;4.27;;;1.10;;
17441;SDS011;8838;50.144;8.176;2024-02-23T14:30:50;4.27;;;1.07;;
17441;SDS011;8838;50.144;8.176;2024-02-23T14:33:20;6.57;;;1.00;;
17441;SDS011;8838;50.144;8.176;2024-02-23T14:35:47;3.07;;;0.70;;
17441;SDS011;8838;50.144;8.176;2024-02-23T14:38:16;3.50;;;0.90;;
17441;SDS011;8838;50.144;8.176;2024-02-23T14:40:43;2.57;;;0.70;;
17441;SDS011;8838;50.144;8.176;2024-02-23T14:43:10;5.67;;;0.73;;
17441;SDS011;8838;50.144;8.176;2024-02-23T14:45:37;4.27;;;0.83;;
17441;SDS011;8838;50.144;8.176;2024-02-23T14:48:04;3.87;;;1.03;;
17441;SDS011;8838;50.144;8.176;2024-02-23T14:50:31;5.77;;;1.00;;
17441;SDS011;8838;50.144;8.176;2024-02-23T14:52:58;6.20;;;0.90;;
17441;SDS011;8838;50.144;8.176;2024-02-23T14:55:27;1.97;;;0.67;;
17441;SDS011;8838;50.144;8.176;2024-02-23T14:57:54;3.20;;;0.90;;
17441;SDS011;8838;50.144;8.176;2024-02-23T15:00:21;3.03;;;0.97;;
17441;SDS011;8838;50.144;8.176;2024-02-23T15:02:48;5.03;;;1.20;;